sensor_id;sensor_type;location;lat;lon;timestamp;pressure;altitude;pressure_sealevel;temperature;humidity
49072;BME280;52656;52.610;10.236;2023-05-12T00:01:52;101156.28;;;13.32;95.20
49072;BME280;52656;52.610;10.236;2023-05-12T00:04:17;101146.78;;;13.26;95.76
49072;BME280;52656;52.610;10.236;2023-05-12T00:06:42;101147.66;;;13.27;95.51
49072;BME280;52656;52.610;10.236;2023-05-12T00:09:07;101151.94;;;13.29;95.58
49072;BME280;52656;52.610;10.236;2023-05-12T00:11:35;101153.88;;;13.26;96.06
49072;BME280;52656;52.610;10.236;2023-05-12T00:14:01;101149.28;;;13.29;95.79
49072;BME280;52656;52.610;10.236;2023-05-12T00:16:26;101153.84;;;13.27;96.20
49072;BME280;52656;52.610;10.236;2023-05-12T00:18:51;101151.78;;;13.13;97.49
49072;BME280;52656;52.610;10.236;2023-05-12T00:21:16;101153.38;;;13.17;96.73
49072;BME280;52656;52.610;10.236;2023-05-12T00:23:42;101160.47;;;13.17;96.85
49072;BME280;52656;52.610;10.236;2023-05-12T00:26:07;101153.31;;;13.19;96.55
49072;BME280;52656;52.610;10.236;2023-05-12T00:28:32;101158.81;;;13.14;97.05
49072;BME280;52656;52.610;10.236;2023-05-12T00:31:01;101158.09;;;13.11;97.03
49072;BME280;52656;52.610;10.236;2023-05-12T00:33:28;101156.16;;;13.14;96.83
49072;BME280;52656;52.610;10.236;2023-05-12T00:35:53;101160.47;;;13.17;96.85
49072;BME280;52656;52.610;10.236;2023-05-12T00:38:18;101158.09;;;13.11;96.68
49072;BME280;52656;52.610;10.236;2023-05-12T00:40:44;101164.22;;;13.13;96.98
49072;BME280;52656;52.610;10.236;2023-05-12T00:43:09;101167.00;;;13.10;96.69
49072;BME280;52656;52.610;10.236;2023-05-12T00:45:35;101164.03;;;13.17;96.06
49072;BME280;52656;52.610;10.236;2023-05-12T00:48:00;101165.88;;;13.15;95.93
49072;BME280;52656;52.610;10.236;2023-05-12T00:50:26;101171.19;;;13.15;95.59
49072;BME280;52656;52.610;10.236;2023-05-12T00:52:51;101172.41;;;13.08;96.13
49072;BME280;52656;52.610;10.236;2023-05-12T00:55:17;101164.47;;;13.07;96.00
49072;BME280;52656;52.610;10.236;2023-05-12T00:57:43;101167.94;;;13.09;95.45
49072;BME280;52656;52.610;10.236;2023-05-12T01:00:08;101169.97;;;13.02;95.97
49072;BME280;52656;52.610;10.236;2023-05-12T01:02:34;101163.69;;;13.05;95.19
49072;BME280;52656;52.610;10.236;2023-05-12T01:05:00;101170.81;;;13.04;94.98
49072;BME280;52656;52.610;10.236;2023-05-12T01:07:26;101171.66;;;13.05;94.73
49072;BME280;52656;52.610;10.236;2023-05-12T01:09:55;101170.81;;;13.04;94.20
49072;BME280;52656;52.610;10.236;2023-05-12T01:12:21;101164.25;;;13.11;93.35
49072;BME280;52656;52.610;10.236;2023-05-12T01:14:47;101166.25;;;13.06;92.54
49072;BME280;52656;52.610;10.236;2023-05-12T01:17:15;101173.59;;;13.01;91.14
49072;BME280;52656;52.610;10.236;2023-05-12T01:19:55;101184.97;;;13.05;90.20
49072;BME280;52656;52.610;10.236;2023-05-12T01:22:21;101185.91;;;13.04;89.02
49072;BME280;52656;52.610;10.236;2023-05-12T01:24:51;101193.06;;;13.02;87.83
49072;BME280;52656;52.610;10.236;2023-05-12T01:27:19;101189.13;;;13.10;88.23
49072;BME280;52656;52.610;10.236;2023-05-12T01:29:45;101192.00;;;13.06;87.77
49072;BME280;52656;52.610;10.236;2023-05-12T01:32:11;101186.56;;;13.09;87.56
49072;BME280;52656;52.610;10.236;2023-05-12T01:34:36;101189.88;;;13.14;87.49
49072;BME280;52656;52.610;10.236;2023-05-12T01:37:02;101190.66;;;13.16;87.73
49072;BME280;52656;52.610;10.236;2023-05-12T01:39:27;101185.50;;;13.13;87.07
49072;BME280;52656;52.610;10.236;2023-05-12T01:41:52;101199.59;;;13.15;87.23
49072;BME280;52656;52.610;10.236;2023-05-12T01:44:18;101193.19;;;13.19;87.30
49072;BME280;52656;52.610;10.236;2023-05-12T01:46:44;101196.19;;;13.11;87.00
49072;BME280;52656;52.610;10.236;2023-05-12T01:49:09;101195.59;;;13.05;86.48
49072;BME280;52656;52.610;10.236;2023-05-12T01:51:35;101202.91;;;13.00;85.52
49072;BME280;52656;52.610;10.236;2023-05-12T01:54:00;101204.00;;;12.94;84.73
49072;BME280;52656;52.610;10.236;2023-05-12T01:56:25;101203.03;;;12.96;83.90
49072;BME280;52656;52.610;10.236;2023-05-12T01:58:50;101204.81;;;12.96;83.08
49072;BME280;52656;52.610;10.236;2023-05-12T02:01:16;101211.00;;;12.96;82.54
49072;BME280;52656;52.610;10.236;2023-05-12T02:03:41;101208.22;;;13.00;82.96
49072;BME280;52656;52.610;10.236;2023-05-12T02:06:06;101212.41;;;13.05;83.20
49072;BME280;52656;52.610;10.236;2023-05-12T02:08:31;101209.56;;;13.10;83.10
49072;BME280;52656;52.610;10.236;2023-05-12T02:11:07;101221.06;;;13.10;83.36
49072;BME280;52656;52.610;10.236;2023-05-12T02:13:33;101223.16;;;13.02;83.24
49072;BME280;52656;52.610;10.236;2023-05-12T02:15:59;101223.06;;;13.05;84.08
49072;BME280;52656;52.610;10.236;2023-05-12T02:18:24;101230.91;;;13.08;84.93
49072;BME280;52656;52.610;10.236;2023-05-12T02:20:50;101226.50;;;13.07;85.11
49072;BME280;52656;52.610;10.236;2023-05-12T02:23:15;101228.28;;;13.07;85.26
49072;BME280;52656;52.610;10.236;2023-05-12T02:25:40;101230.22;;;13.03;87.34
49072;BME280;52656;52.610;10.236;2023-05-12T02:28:06;101227.56;;;13.03;86.90
49072;BME280;52656;52.610;10.236;2023-05-12T02:30:35;101230.09;;;13.06;86.82
49072;BME280;52656;52.610;10.236;2023-05-12T02:33:00;101236.81;;;12.94;85.26
49072;BME280;52656;52.610;10.236;2023-05-12T02:35:26;101235.88;;;12.95;85.01
49072;BME280;52656;52.610;10.236;2023-05-12T02:37:51;101232.34;;;12.95;83.79
49072;BME280;52656;52.610;10.236;2023-05-12T02:40:16;101231.41;;;12.96;85.31
49072;BME280;52656;52.610;10.236;2023-05-12T02:42:41;101235.22;;;12.90;88.20
49072;BME280;52656;52.610;10.236;2023-05-12T02:45:08;101253.38;;;12.57;89.26
49072;BME280;52656;52.610;10.236;2023-05-12T02:47:34;101254.56;;;12.50;88.21
49072;BME280;52656;52.610;10.236;2023-05-12T02:50:00;101248.03;;;12.59;87.46
49072;BME280;52656;52.610;10.236;2023-05-12T02:52:26;101248.91;;;12.58;87.20
49072;BME280;52656;52.610;10.236;2023-05-12T02:54:51;101245.59;;;12.53;86.97
49072;BME280;52656;52.610;10.236;2023-05-12T02:57:16;101241.28;;;12.50;86.68
49072;BME280;52656;52.610;10.236;2023-05-12T02:59:42;101258.22;;;12.46;87.91
49072;BME280;52656;52.610;10.236;2023-05-12T03:02:07;101269.41;;;12.32;89.60
49072;BME280;52656;52.610;10.236;2023-05-12T03:04:32;101266.38;;;12.41;88.40
49072;BME280;52656;52.610;10.236;2023-05-12T03:06:58;101254.13;;;12.37;88.61
49072;BME280;52656;52.610;10.236;2023-05-12T03:09:23;101245.13;;;12.41;87.98
49072;BME280;52656;52.610;10.236;2023-05-12T03:11:48;101253.03;;;12.43;88.65
49072;BME280;52656;52.610;10.236;2023-05-12T03:14:13;101250.38;;;12.43;88.63
49072;BME280;52656;52.610;10.236;2023-05-12T03:16:39;101266.50;;;12.38;89.60
49072;BME280;52656;52.610;10.236;2023-05-12T03:19:04;101280.13;;;12.29;90.35
49072;BME280;52656;52.610;10.236;2023-05-12T03:21:29;101260.91;;;12.23;89.92
49072;BME280;52656;52.610;10.236;2023-05-12T03:23:55;101255.53;;;12.24;89.12
49072;BME280;52656;52.610;10.236;2023-05-12T03:26:21;101252.81;;;12.26;89.41
49072;BME280;52656;52.610;10.236;2023-05-12T03:28:47;101246.78;;;12.22;89.43
49072;BME280;52656;52.610;10.236;2023-05-12T03:31:12;101248.50;;;12.23;89.62
49072;BME280;52656;52.610;10.236;2023-05-12T03:33:37;101258.31;;;12.21;89.42
49072;BME280;52656;52.610;10.236;2023-05-12T03:36:03;101249.72;;;12.14;89.75
49072;BME280;52656;52.610;10.236;2023-05-12T03:38:28;101258.72;;;12.10;90.23
49072;BME280;52656;52.610;10.236;2023-05-12T03:41:06;101256.16;;;12.07;90.25
49072;BME280;52656;52.610;10.236;2023-05-12T03:43:32;101250.94;;;12.06;90.29
49072;BME280;52656;52.610;10.236;2023-05-12T03:45:57;101251.97;;;12.02;90.27
49072;BME280;52656;52.610;10.236;2023-05-12T03:48:23;101249.56;;;11.95;90.05
49072;BME280;52656;52.610;10.236;2023-05-12T03:50:48;101245.22;;;11.93;89.76
49072;BME280;52656;52.610;10.236;2023-05-12T03:53:14;101251.56;;;11.89;90.22
49072;BME280;52656;52.610;10.236;2023-05-12T03:55:39;101257.09;;;11.83;90.28
49072;BME280;52656;52.610;10.236;2023-05-12T03:58:05;101258.91;;;11.82;90.21
49072;BME280;52656;52.610;10.236;2023-05-12T04:00:30;101269.09;;;11.69;90.88
49072;BME280;52656;52.610;10.236;2023-05-12T04:02:57;101268.81;;;11.77;90.65
49072;BME280;52656;52.610;10.236;2023-05-12T04:05:22;101264.28;;;11.81;90.75
49072;BME280;52656;52.610;10.236;2023-05-12T04:07:47;101261.28;;;11.90;89.71
49072;BME280;52656;52.610;10.236;2023-05-12T04:10:12;101261.22;;;11.91;90.26
49072;BME280;52656;52.610;10.236;2023-05-12T04:12:38;101266.28;;;11.98;89.64
49072;BME280;52656;52.610;10.236;2023-05-12T04:15:03;101268.66;;;12.05;89.24
49072;BME280;52656;52.610;10.236;2023-05-12T04:17:29;101271.94;;;12.12;89.11
49072;BME280;52656;52.610;10.236;2023-05-12T04:19:54;101275.41;;;12.14;89.78
49072;BME280;52656;52.610;10.236;2023-05-12T04:22:19;101273.28;;;12.24;88.99
49072;BME280;52656;52.610;10.236;2023-05-12T04:24:45;101275.69;;;12.30;89.44
49072;BME280;52656;52.610;10.236;2023-05-12T04:27:10;101275.28;;;12.40;88.64
49072;BME280;52656;52.610;10.236;2023-05-12T04:29:35;101275.09;;;12.45;87.78
49072;BME280;52656;52.610;10.236;2023-05-12T04:32:01;101268.53;;;12.55;87.43
49072;BME280;52656;52.610;10.236;2023-05-12T04:34:26;101275.31;;;12.62;86.94
49072;BME280;52656;52.610;10.236;2023-05-12T04:36:51;101270.56;;;12.70;87.35
49072;BME280;52656;52.610;10.236;2023-05-12T04:39:17;101279.72;;;12.85;86.68
49072;BME280;52656;52.610;10.236;2023-05-12T04:41:42;101295.25;;;12.96;86.15
49072;BME280;52656;52.610;10.236;2023-05-12T04:44:08;101282.53;;;13.03;85.62
49072;BME280;52656;52.610;10.236;2023-05-12T04:46:33;101283.66;;;13.19;85.10
49072;BME280;52656;52.610;10.236;2023-05-12T04:48:58;101285.91;;;13.28;84.91
49072;BME280;52656;52.610;10.236;2023-05-12T04:51:24;101286.50;;;13.35;84.27
49072;BME280;52656;52.610;10.236;2023-05-12T04:53:49;101289.03;;;13.38;84.54
49072;BME280;52656;52.610;10.236;2023-05-12T04:56:14;101295.38;;;13.35;84.50
49072;BME280;52656;52.610;10.236;2023-05-12T04:58:39;101299.53;;;13.20;84.51
49072;BME280;52656;52.610;10.236;2023-05-12T05:01:05;101308.53;;;13.38;84.42
49072;BME280;52656;52.610;10.236;2023-05-12T05:03:30;101299.03;;;13.53;84.27
49072;BME280;52656;52.610;10.236;2023-05-12T05:05:56;101305.56;;;13.66;83.41
49072;BME280;52656;52.610;10.236;2023-05-12T05:08:21;101297.19;;;13.76;83.68
49072;BME280;52656;52.610;10.236;2023-05-12T05:10:46;101302.09;;;13.85;82.79
49072;BME280;52656;52.610;10.236;2023-05-12T05:13:12;101305.56;;;13.87;82.75
49072;BME280;52656;52.610;10.236;2023-05-12T05:15:37;101315.69;;;13.79;83.24
49072;BME280;52656;52.610;10.236;2023-05-12T05:18:02;101322.66;;;13.61;82.80
49072;BME280;52656;52.610;10.236;2023-05-12T05:20:29;101328.06;;;13.80;82.42
49072;BME280;52656;52.610;10.236;2023-05-12T05:22:56;101316.75;;;13.95;82.35
49072;BME280;52656;52.610;10.236;2023-05-12T05:25:22;101317.41;;;14.00;81.75
49072;BME280;52656;52.610;10.236;2023-05-12T05:27:47;101320.25;;;14.16;81.25
49072;BME280;52656;52.610;10.236;2023-05-12T05:30:13;101329.97;;;14.17;79.59
49072;BME280;52656;52.610;10.236;2023-05-12T05:32:38;101329.19;;;14.53;79.71
49072;BME280;52656;52.610;10.236;2023-05-12T05:35:04;101330.84;;;14.93;78.46
49072;BME280;52656;52.610;10.236;2023-05-12T05:37:30;101325.53;;;15.64;75.74
49072;BME280;52656;52.610;10.236;2023-05-12T05:39:55;101341.72;;;15.95;72.66
49072;BME280;52656;52.610;10.236;2023-05-12T05:42:20;101327.84;;;16.38;72.96
49072;BME280;52656;52.610;10.236;2023-05-12T05:44:45;101324.50;;;16.66;72.13
49072;BME280;52656;52.610;10.236;2023-05-12T05:47:11;101330.22;;;16.75;71.14
49072;BME280;52656;52.610;10.236;2023-05-12T05:49:36;101331.44;;;16.86;70.70
49072;BME280;52656;52.610;10.236;2023-05-12T05:52:01;101337.81;;;17.15;69.84
49072;BME280;52656;52.610;10.236;2023-05-12T05:54:26;101335.91;;;17.17;67.90
49072;BME280;52656;52.610;10.236;2023-05-12T05:56:52;101335.66;;;17.06;68.59
49072;BME280;52656;52.610;10.236;2023-05-12T05:59:17;101342.06;;;16.87;66.69
49072;BME280;52656;52.610;10.236;2023-05-12T06:01:42;101346.72;;;16.84;68.52
49072;BME280;52656;52.610;10.236;2023-05-12T06:04:09;101342.72;;;17.07;68.04
49072;BME280;52656;52.610;10.236;2023-05-12T06:06:34;101338.84;;;17.12;67.12
49072;BME280;52656;52.610;10.236;2023-05-12T06:08:59;101340.00;;;16.77;65.79
49072;BME280;52656;52.610;10.236;2023-05-12T06:11:24;101340.25;;;16.72;65.82
49072;BME280;52656;52.610;10.236;2023-05-12T06:13:50;101352.53;;;16.76;66.36
49072;BME280;52656;52.610;10.236;2023-05-12T06:16:15;101354.41;;;16.90;67.83
49072;BME280;52656;52.610;10.236;2023-05-12T06:18:40;101358.63;;;16.94;68.15
49072;BME280;52656;52.610;10.236;2023-05-12T06:21:05;101357.88;;;17.08;67.60
49072;BME280;52656;52.610;10.236;2023-05-12T06:23:31;101358.78;;;17.22;66.78
49072;BME280;52656;52.610;10.236;2023-05-12T06:25:56;101365.75;;;17.41;66.86
49072;BME280;52656;52.610;10.236;2023-05-12T06:28:21;101359.75;;;17.51;66.82
49072;BME280;52656;52.610;10.236;2023-05-12T06:30:47;101361.19;;;17.57;66.81
49072;BME280;52656;52.610;10.236;2023-05-12T06:33:12;101361.09;;;17.29;65.10
49072;BME280;52656;52.610;10.236;2023-05-12T06:35:37;101368.63;;;17.06;62.18
49072;BME280;52656;52.610;10.236;2023-05-12T06:38:02;101378.00;;;16.17;59.96
49072;BME280;52656;52.610;10.236;2023-05-12T06:40:27;101374.84;;;16.42;60.43
49072;BME280;52656;52.610;10.236;2023-05-12T06:42:53;101373.59;;;16.49;60.52
49072;BME280;52656;52.610;10.236;2023-05-12T06:45:18;101380.56;;;16.51;60.63
49072;BME280;52656;52.610;10.236;2023-05-12T06:47:43;101374.66;;;16.29;61.60
49072;BME280;52656;52.610;10.236;2023-05-12T06:50:09;101384.69;;;16.08;60.99
49072;BME280;52656;52.610;10.236;2023-05-12T06:52:34;101373.25;;;16.55;61.62
49072;BME280;52656;52.610;10.236;2023-05-12T06:55:00;101376.91;;;16.70;61.23
49072;BME280;52656;52.610;10.236;2023-05-12T06:57:25;101377.91;;;16.51;61.13
49072;BME280;52656;52.610;10.236;2023-05-12T06:59:50;101382.09;;;16.89;61.52
49072;BME280;52656;52.610;10.236;2023-05-12T07:02:16;101380.47;;;17.02;61.22
49072;BME280;52656;52.610;10.236;2023-05-12T07:04:41;101377.78;;;17.18;60.43
49072;BME280;52656;52.610;10.236;2023-05-12T07:07:06;101380.00;;;17.25;58.38
49072;BME280;52656;52.610;10.236;2023-05-12T07:09:32;101375.88;;;17.36;58.00
49072;BME280;52656;52.610;10.236;2023-05-12T07:11:57;101376.41;;;17.26;56.30
49072;BME280;52656;52.610;10.236;2023-05-12T07:14:23;101371.19;;;17.85;56.61
49072;BME280;52656;52.610;10.236;2023-05-12T07:16:49;101378.56;;;18.10;55.02
49072;BME280;52656;52.610;10.236;2023-05-12T07:19:14;101380.13;;;18.43;53.83
49072;BME280;52656;52.610;10.236;2023-05-12T07:21:39;101377.63;;;18.83;53.72
49072;BME280;52656;52.610;10.236;2023-05-12T07:24:04;101376.34;;;19.29;53.55
49072;BME280;52656;52.610;10.236;2023-05-12T07:26:30;101370.81;;;19.33;53.13
49072;BME280;52656;52.610;10.236;2023-05-12T07:28:56;101377.63;;;19.51;51.43
49072;BME280;52656;52.610;10.236;2023-05-12T07:31:21;101382.50;;;19.32;51.34
49072;BME280;52656;52.610;10.236;2023-05-12T07:33:47;101377.38;;;19.41;51.59
49072;BME280;52656;52.610;10.236;2023-05-12T07:36:12;101381.75;;;19.69;50.29
49072;BME280;52656;52.610;10.236;2023-05-12T07:38:37;101385.31;;;19.70;50.98
49072;BME280;52656;52.610;10.236;2023-05-12T07:41:03;101390.97;;;18.70;52.56
49072;BME280;52656;52.610;10.236;2023-05-12T07:43:28;101384.22;;;18.91;52.15
49072;BME280;52656;52.610;10.236;2023-05-12T07:45:53;101389.50;;;19.20;52.18
49072;BME280;52656;52.610;10.236;2023-05-12T07:48:20;101386.16;;;19.16;51.97
49072;BME280;52656;52.610;10.236;2023-05-12T07:50:45;101390.94;;;19.25;50.20
49072;BME280;52656;52.610;10.236;2023-05-12T07:53:11;101388.56;;;19.35;48.91
49072;BME280;52656;52.610;10.236;2023-05-12T07:55:36;101389.00;;;19.94;48.12
49072;BME280;52656;52.610;10.236;2023-05-12T07:58:01;101371.28;;;20.30;47.56
49072;BME280;52656;52.610;10.236;2023-05-12T08:00:27;101376.13;;;20.38;46.39
49072;BME280;52656;52.610;10.236;2023-05-12T08:02:52;101378.06;;;20.98;44.56
49072;BME280;52656;52.610;10.236;2023-05-12T08:05:18;101376.09;;;20.76;44.50
49072;BME280;52656;52.610;10.236;2023-05-12T08:07:44;101382.66;;;20.72;45.10
49072;BME280;52656;52.610;10.236;2023-05-12T08:10:11;101381.50;;;20.63;45.09
49072;BME280;52656;52.610;10.236;2023-05-12T08:12:37;101375.72;;;20.93;44.51
49072;BME280;52656;52.610;10.236;2023-05-12T08:15:04;101375.16;;;21.01;44.84
49072;BME280;52656;52.610;10.236;2023-05-12T08:17:30;101381.03;;;20.69;45.27
49072;BME280;52656;52.610;10.236;2023-05-12T08:19:55;101380.88;;;20.96;44.40
49072;BME280;52656;52.610;10.236;2023-05-12T08:22:21;101383.06;;;21.15;43.45
49072;BME280;52656;52.610;10.236;2023-05-12T08:24:46;101379.97;;;22.49;41.69
49072;BME280;52656;52.610;10.236;2023-05-12T08:27:11;101380.97;;;21.91;43.09
49072;BME280;52656;52.610;10.236;2023-05-12T08:29:37;101383.53;;;22.50;42.25
49072;BME280;52656;52.610;10.236;2023-05-12T08:32:03;101377.63;;;22.67;41.31
49072;BME280;52656;52.610;10.236;2023-05-12T08:34:29;101375.09;;;23.52;40.03
49072;BME280;52656;52.610;10.236;2023-05-12T08:36:55;101371.91;;;23.79;38.48
49072;BME280;52656;52.610;10.236;2023-05-12T08:39:20;101374.03;;;23.97;38.40
49072;BME280;52656;52.610;10.236;2023-05-12T08:42:00;101380.28;;;24.18;38.78
49072;BME280;52656;52.610;10.236;2023-05-12T08:44:34;101372.00;;;26.46;35.41
49072;BME280;52656;52.610;10.236;2023-05-12T08:47:02;101372.53;;;26.12;34.76
49072;BME280;52656;52.610;10.236;2023-05-12T08:49:30;101363.69;;;29.37;31.95
49072;BME280;52656;52.610;10.236;2023-05-12T08:51:55;101365.44;;;28.19;32.97
49072;BME280;52656;52.610;10.236;2023-05-12T08:54:22;101370.91;;;26.94;32.80
49072;BME280;52656;52.610;10.236;2023-05-12T08:56:50;101371.31;;;25.58;35.31
49072;BME280;52656;52.610;10.236;2023-05-12T08:59:17;101385.19;;;24.34;36.94
49072;BME280;52656;52.610;10.236;2023-05-12T09:01:42;101382.38;;;24.36;36.10
49072;BME280;52656;52.610;10.236;2023-05-12T09:04:11;101372.84;;;25.99;35.28
49072;BME280;52656;52.610;10.236;2023-05-12T09:06:37;101370.34;;;26.35;33.32
49072;BME280;52656;52.610;10.236;2023-05-12T09:09:02;101374.56;;;25.52;32.91
49072;BME280;52656;52.610;10.236;2023-05-12T09:11:28;101380.69;;;26.87;31.89
49072;BME280;52656;52.610;10.236;2023-05-12T09:14:02;101370.41;;;27.79;31.30
49072;BME280;52656;52.610;10.236;2023-05-12T09:16:31;101375.81;;;26.63;31.56
49072;BME280;52656;52.610;10.236;2023-05-12T09:18:58;101375.00;;;25.96;32.03
49072;BME280;52656;52.610;10.236;2023-05-12T09:21:24;101376.63;;;26.26;31.89
49072;BME280;52656;52.610;10.236;2023-05-12T09:23:55;101378.16;;;25.62;32.19
49072;BME280;52656;52.610;10.236;2023-05-12T09:26:21;101376.22;;;26.95;30.59
49072;BME280;52656;52.610;10.236;2023-05-12T09:28:47;101379.75;;;27.77;30.96
49072;BME280;52656;52.610;10.236;2023-05-12T09:31:22;101372.97;;;29.01;29.74
49072;BME280;52656;52.610;10.236;2023-05-12T09:33:49;101371.25;;;28.92;29.58
49072;BME280;52656;52.610;10.236;2023-05-12T09:36:22;101379.81;;;28.29;28.27
49072;BME280;52656;52.610;10.236;2023-05-12T09:39:04;101367.25;;;28.36;28.40
49072;BME280;52656;52.610;10.236;2023-05-12T09:41:43;101379.53;;;26.89;29.25
49072;BME280;52656;52.610;10.236;2023-05-12T09:44:09;101383.81;;;27.73;29.23
49072;BME280;52656;52.610;10.236;2023-05-12T09:46:36;101379.38;;;26.91;29.01
49072;BME280;52656;52.610;10.236;2023-05-12T09:49:02;101374.56;;;27.12;30.30
49072;BME280;52656;52.610;10.236;2023-05-12T09:51:28;101370.03;;;28.18;29.34
49072;BME280;52656;52.610;10.236;2023-05-12T09:53:54;101376.72;;;28.06;29.12
49072;BME280;52656;52.610;10.236;2023-05-12T09:56:20;101367.94;;;28.12;29.05
49072;BME280;52656;52.610;10.236;2023-05-12T09:58:47;101369.94;;;28.62;28.07
49072;BME280;52656;52.610;10.236;2023-05-12T10:01:17;101369.53;;;27.97;27.42
49072;BME280;52656;52.610;10.236;2023-05-12T10:03:52;101366.41;;;29.28;26.37
49072;BME280;52656;52.610;10.236;2023-05-12T10:06:30;101367.41;;;28.69;26.18
49072;BME280;52656;52.610;10.236;2023-05-12T10:09:24;101377.53;;;28.50;25.26
49072;BME280;52656;52.610;10.236;2023-05-12T10:11:52;101377.16;;;26.49;26.98
49072;BME280;52656;52.610;10.236;2023-05-12T10:14:17;101383.97;;;27.71;26.27
49072;BME280;52656;52.610;10.236;2023-05-12T10:16:44;101378.75;;;27.42;26.30
49072;BME280;52656;52.610;10.236;2023-05-12T10:19:12;101376.34;;;28.01;26.98
49072;BME280;52656;52.610;10.236;2023-05-12T10:21:38;101359.63;;;29.41;26.32
49072;BME280;52656;52.610;10.236;2023-05-12T10:24:04;101371.59;;;27.77;27.69
49072;BME280;52656;52.610;10.236;2023-05-12T10:26:31;101376.38;;;27.57;27.69
49072;BME280;52656;52.610;10.236;2023-05-12T10:28:58;101372.09;;;27.98;28.21
49072;BME280;52656;52.610;10.236;2023-05-12T10:31:24;101365.47;;;26.94;28.21
49072;BME280;52656;52.610;10.236;2023-05-12T10:34:00;101376.19;;;27.41;27.38
49072;BME280;52656;52.610;10.236;2023-05-12T10:36:25;101371.16;;;25.30;28.82
49072;BME280;52656;52.610;10.236;2023-05-12T10:38:51;101367.19;;;24.23;30.86
49072;BME280;52656;52.610;10.236;2023-05-12T10:41:31;101362.69;;;24.54;31.04
49072;BME280;52656;52.610;10.236;2023-05-12T10:43:56;101363.25;;;26.05;29.53
49072;BME280;52656;52.610;10.236;2023-05-12T10:46:22;101363.22;;;27.17;28.49
49072;BME280;52656;52.610;10.236;2023-05-12T10:51:19;101362.03;;;27.73;25.54
49072;BME280;52656;52.610;10.236;2023-05-12T10:53:50;101364.72;;;25.41;28.17
49072;BME280;52656;52.610;10.236;2023-05-12T10:56:20;101367.56;;;25.88;29.31
49072;BME280;52656;52.610;10.236;2023-05-12T11:01:54;101359.78;;;24.87;28.41
49072;BME280;52656;52.610;10.236;2023-05-12T11:04:20;101351.72;;;25.16;28.13
49072;BME280;52656;52.610;10.236;2023-05-12T11:06:56;101345.66;;;24.83;28.19
49072;BME280;52656;52.610;10.236;2023-05-12T11:09:22;101364.31;;;24.15;28.16
49072;BME280;52656;52.610;10.236;2023-05-12T11:11:49;101364.06;;;23.97;28.09
49072;BME280;52656;52.610;10.236;2023-05-12T11:14:15;101353.72;;;23.82;28.21
49072;BME280;52656;52.610;10.236;2023-05-12T11:16:42;101358.09;;;23.62;27.88
49072;BME280;52656;52.610;10.236;2023-05-12T11:19:08;101347.50;;;23.38;27.27
49072;BME280;52656;52.610;10.236;2023-05-12T11:21:34;101359.72;;;23.32;28.32
49072;BME280;52656;52.610;10.236;2023-05-12T11:24:01;101350.28;;;23.15;29.93
49072;BME280;52656;52.610;10.236;2023-05-12T11:26:27;101354.44;;;22.42;27.25
49072;BME280;52656;52.610;10.236;2023-05-12T11:28:53;101360.22;;;22.71;27.52
49072;BME280;52656;52.610;10.236;2023-05-12T11:31:19;101350.69;;;22.99;27.29
49072;BME280;52656;52.610;10.236;2023-05-12T11:33:46;101353.38;;;23.11;27.72
49072;BME280;52656;52.610;10.236;2023-05-12T11:36:11;101361.88;;;22.95;28.72
49072;BME280;52656;52.610;10.236;2023-05-12T11:38:37;101366.22;;;22.64;28.68
49072;BME280;52656;52.610;10.236;2023-05-12T11:41:02;101372.72;;;22.61;28.23
49072;BME280;52656;52.610;10.236;2023-05-12T11:43:28;101368.16;;;22.17;27.54
49072;BME280;52656;52.610;10.236;2023-05-12T11:45:53;101379.44;;;22.22;27.96
49072;BME280;52656;52.610;10.236;2023-05-12T11:48:31;101363.75;;;22.38;28.81
49072;BME280;52656;52.610;10.236;2023-05-12T11:50:57;101373.34;;;22.53;28.04
49072;BME280;52656;52.610;10.236;2023-05-12T11:53:23;101363.66;;;22.62;28.77
49072;BME280;52656;52.610;10.236;2023-05-12T11:55:53;101359.56;;;22.23;28.12
49072;BME280;52656;52.610;10.236;2023-05-12T12:00:46;101366.31;;;22.85;28.40
49072;BME280;52656;52.610;10.236;2023-05-12T12:03:13;101365.66;;;23.15;28.10
49072;BME280;52656;52.610;10.236;2023-05-12T12:05:41;101373.28;;;23.10;29.86
49072;BME280;52656;52.610;10.236;2023-05-12T12:08:12;101372.84;;;22.71;29.34
49072;BME280;52656;52.610;10.236;2023-05-12T12:10:38;101372.09;;;22.80;29.54
49072;BME280;52656;52.610;10.236;2023-05-12T12:13:04;101366.41;;;23.17;28.85
49072;BME280;52656;52.610;10.236;2023-05-12T12:15:30;101365.50;;;23.16;29.03
49072;BME280;52656;52.610;10.236;2023-05-12T12:17:55;101370.38;;;22.79;29.05
49072;BME280;52656;52.610;10.236;2023-05-12T12:20:21;101374.44;;;22.51;27.20
49072;BME280;52656;52.610;10.236;2023-05-12T12:22:48;101372.97;;;22.80;27.63
49072;BME280;52656;52.610;10.236;2023-05-12T12:25:14;101380.34;;;22.45;28.52
49072;BME280;52656;52.610;10.236;2023-05-12T12:27:39;101366.38;;;22.40;28.54
49072;BME280;52656;52.610;10.236;2023-05-12T12:30:05;101362.78;;;22.50;28.73
49072;BME280;52656;52.610;10.236;2023-05-12T12:32:30;101378.44;;;22.34;27.78
49072;BME280;52656;52.610;10.236;2023-05-12T12:34:56;101373.69;;;22.38;27.11
49072;BME280;52656;52.610;10.236;2023-05-12T12:37:24;101379.09;;;22.60;28.09
49072;BME280;52656;52.610;10.236;2023-05-12T12:39:50;101364.38;;;22.64;28.26
49072;BME280;52656;52.610;10.236;2023-05-12T12:42:15;101369.91;;;22.63;28.28
49072;BME280;52656;52.610;10.236;2023-05-12T12:44:40;101372.31;;;22.10;27.39